WEATHER DATA

YESTERDAY
Time Temp. Dewp. Hum. Wind dir Wind speed Wind gust Bar. 1h Prec. 24h Prec.
00:05 26.4 16.6 55 225 2.5 5 1002.9 0.0000 0.0000
00:15 26.2 16.5 55 227 2.8 4.7 1003 0.0000 0.0000
00:25 26 16.5 56 222 2.8 3.9 1002.6 0.0000 0.0000
00:35 25.8 16.4 56 229 2.8 4.7 1002.5 0.0000 0.0000
00:45 25.5 16.4 57 229 2.5 4.4 1002.4 0.0000 0.0000
00:55 25.3 16.2 57 226 2.8 4.7 1002.3 0.0000 0.0000
01:06 25.1 16.3 58 223 2.8 6.7 1002.1 0.0000 0.0000
01:16 24.9 16.1 58 228 2.8 4.2 1002.1 0.0000 0.0000
01:25 24.7 16.2 59 228 3.1 4.4 1002 0.0000 0.0000
01:36 24.5 16.2 60 222 2.8 5 1002 0.0000 0.0000
01:46 24.3 16.3 61 219 3.1 6.1 1001.8 0.0000 0.0000
01:56 24.1 16.1 61 220 2.8 5 1001.7 0.0000 0.0000
02:06 23.9 16.2 62 216 2.8 5.6 1001.6 0.0000 0.0000
02:16 23.8 16.1 62 219 2.8 4.7 1001.5 0.0000 0.0000
02:26 23.6 16.1 63 215 2.8 4.4 1001.6 0.0000 0.0000
02:36 23.5 16.1 63 212 2.8 4.2 1001.4 0.0000 0.0000
02:47 23.4 16 63 210 2.8 3.9 1001.6 0.0000 0.0000
02:57 23.3 15.9 63 220 2.5 4.4 1001.5 0.0000 0.0000
03:06 23.2 15.8 63 215 3.1 4.2 1001.5 0.0000 0.0000
03:16 23 15.8 64 210 2.8 3.9 1001.7 0.0000 0.0000
03:27 22.8 15.6 64 203 2.5 3.6 1001.7 0.0000 0.0000
03:37 22.6 15.7 65 197 2.2 3.3 1001.6 0.0000 0.0000
03:47 22.5 15.6 65 206 1.7 2.5 1001.9 0.0000 0.0000
03:57 22.3 15.4 65 195 1.4 2.2 1001.7 0.0000 0.0000
04:07 22.2 15.6 66 196 1.1 1.7 1001.6 0.0000 0.0000
04:17 22 15.4 66 172 1.4 2.2 1001.5 0.0000 0.0000
04:27 21.9 15.5 67 169 1.4 2.2 1001.4 0.0000 0.0000
04:38 21.8 15.4 67 176 1.1 2.2 1001.5 0.0000 0.0000
04:48 21.6 15.4 68 132 0.8 1.9 1001.4 0.0000 0.0000
04:57 21.5 15.4 68 167 1.1 1.9 1001.6 0.0000 0.0000
05:08 21.5 15.4 68 158 1.1 1.9 1001.7 0.0000 0.0000
05:18 21.4 15.5 69 163 1.1 1.9 1001.6 0.0000 0.0000
05:28 21.4 15.5 69 172 1.4 2.5 1001.7 0.0000 0.0000
05:38 21.6 15.9 70 208 2.8 3.9 1001.9 0.0000 0.0000
05:48 21.9 16 69 229 2.8 4.7 1001.8 0.0000 0.0000
05:58 22.5 16.3 68 300 3.1 6.1 1001.7 0.0000 0.0000
06:08 22.9 16.5 67 243 2.8 5.8 1001.6 0.0000 0.0000
06:18 23.5 16.8 66 228 2.5 4.7 1001.8 0.0000 0.0000
06:29 24.2 17.2 65 228 2.8 3.9 1001.9 0.0000 0.0000
06:38 24.9 17.4 63 228 2.8 4.2 1001.6 0.0000 0.0000
06:48 25.1 17.3 62 229 3.1 4.2 1001.4 0.0000 0.0000
06:59 25.2 17.4 62 228 3.1 4.4 1001.1 0.0000 0.0000
07:09 25.8 18 62 234 3.1 5.3 1001.3 0.0000 0.0000
07:19 26.6 18.2 60 231 3.1 4.2 1001.5 0.0000 0.0000
07:28 27.1 18.1 58 227 3.1 4.7 1001.5 0.0000 0.0000
07:39 27.6 18.6 58 228 2.8 4.4 1001.4 0.0000 0.0000
07:49 27.9 18.6 57 229 2.8 4.4 1001.4 0.0000 0.0000
07:59 28.8 19.2 56 236 2.8 4.4 1001.3 0.0000 0.0000
08:10 29.5 19.2 54 245 2.8 4.7 1001.7 0.0000 0.0000
08:19 30.2 19.6 53 234 2.8 4.4 1001.6 0.0000 0.0000
08:29 31.1 19.8 51 237 3.1 4.7 1001.6 0.0000 0.0000
08:39 31.6 19.9 50 226 2.8 4.7 1001.4 0.0000 0.0000
08:50 31.7 20 50 248 3.1 4.7 1001.5 0.0000 0.0000
09:00 31.9 20.2 50 306 3.1 4.4 1001.4 0.0000 0.0000
09:09 32.1 20 49 333 3.1 4.2 1001.3 0.0000 0.0000
09:20 32.5 20.4 49 338 3.1 4.2 1001.3 0.0000 0.0000
09:30 33 20.5 48 346 3.1 3.9 1001.3 0.0000 0.0000
09:40 33.6 20.7 47 349 3.3 5 1001.4 0.0000 0.0000
09:50 34.3 20.7 45 345 2.8 3.6 1001.3 0.0000 0.0000
10:00 34.5 20.8 45 351 3.3 3.6 1001.3 0.0000 0.0000
10:10 34.7 21 45 347 3.9 4.7 1001.3 0.0000 0.0000
10:20 35.1 21 44 3 3.9 4.7 1001.2 0.0000 0.0000
10:30 35.6 21.1 43 286 3.9 4.2 1001.3 0.0000 0.0000
10:41 36.3 21.3 42 286 3.9 4.2 1001.2 0.0000 0.0000
10:51 36.5 21.1 41 286 3.9 4.2 1001.2 0.0000 0.0000
11:00 37 21.6 41 270 3.3 3.9 1001.2 0.0000 0.0000
11:11 36.7 20.5 39 302 3.9 4.7 1001 0.0000 0.0000
11:21 36.9 20.7 39 302 3.9 4.7 1001 0.0000 0.0000
11:31 36.9 21.1 40 275 3.6 3.9 1000.9 0.0000 0.0000
11:41 37.3 21 39 264 3.9 4.2 1000.9 0.0000 0.0000
11:51 37.6 21.3 39 282 3.9 4.4 1000.8 0.0000 0.0000
12:01 37.6 20.9 38 289 3.6 5 1000.8 0.0000 0.0000
12:11 37.2 20.5 38 273 3.6 4.4 1000.6 0.0000 0.0000
12:22 36.9 20.7 39 278 3.9 5.8 1000.3 0.0000 0.0000
12:32 37.4 20.7 38 280 4.2 6.1 1000.3 0.0000 0.0000
12:41 37.7 20.9 38 270 3.9 5 1000.1 0.0000 0.0000
12:51 37.5 21.2 39 270 3.9 5.3 999.9 0.0000 0.0000
13:02 37.7 20.9 38 267 3.9 4.7 1000 0.0000 0.0000
13:12 37.5 20.8 38 270 3.3 4.7 1000 0.0000 0.0000
13:22 37.6 20.9 38 270 3.9 5.3 1000 0.0000 0.0000
13:32 37.7 20.5 37 274 3.6 5.3 1000.1 0.0000 0.0000
13:42 37.5 20.8 38 276 3.6 4.7 1000 0.0000 0.0000
13:52 38.1 20.9 37 270 3.6 5 999.9 0.0000 0.0000
14:02 38.6 20.9 36 275 3.6 5 999.6 0.0000 0.0000
14:13 38.4 20.7 36 270 3.9 5.6 999 0.0000 0.0000
14:32 37.7 20.5 37 283 3.9 5 999.5 0.0000 0.0000
14:43 37.4 20.2 37 289 4.2 5 999.8 0.0000 0.0000
15:03 36.6 20.4 39 268 4.2 5 1000 0.0000 0.0000
15:12 34.3 20.7 45 289 3.6 5 1000 0.0000 0.0000
15:23 31.1 19.5 50 236 2.8 4.7 1000.4 0.0000 0.0000
15:33 29.5 18.9 53 228 3.1 4.7 1001.5 0.0000 0.0000
15:48 28.1 18.2 55 236 3.3 10 1002 3.7050 3.7000
15:59 26.5 18.6 62 225 3.1 6.9 1001.8 8.9970 9.0000
16:09 24.9 16.9 61 46 1.7 6.4 1001.6 10.2320 10.2000
16:19 24.2 17.2 65 230 2.5 5.8 1001.6 10.4080 10.4000
16:28 23.5 17.5 69 234 2.8 5.3 1001.3 10.4080 10.4000
16:39 23.2 17.7 71 220 3.1 5.6 1000.9 10.5840 10.6000
16:49 23.4 18.3 73 225 3.1 5.3 1000.8 6.8790 10.6000
16:59 23.5 18.6 74 216 2.5 6.4 1000.6 0.8810 10.6000
17:09 23.6 18.7 74 225 3.6 7.8 1000.4 0.3520 10.6000
17:19 23.9 19.2 75 223 3.9 6.4 1000.3 0.1760 10.6000
17:29 24.2 19.3 74 213 3.9 8.3 1000.6 0.1760 10.6000
17:39 24.6 19.7 74 214 3.6 5.8 1000.7 0.0000 10.6000
17:50 24.9 19.7 73 214 4.2 6.1 1000.9 0.0000 10.6000
18:00 25 19.8 73 205 3.3 5 1001.4 0.0000 10.6000
18:09 24.9 19.7 73 217 3.6 4.7 1001.8 0.0000 10.6000
18:20 24.9 19.7 73 203 3.9 6.7 1001.4 0.0000 10.6000
18:30 24.8 19.4 72 205 3.9 5.3 1001 0.0000 10.6000
18:40 24.9 19.5 72 222 2.8 5.8 1001 0.0000 10.6000
18:50 25 19.6 72 248 2.8 5.6 1000.9 0.0000 10.6000
19:00 25 19.4 71 241 3.1 5.6 1001.2 0.0000 10.6000
19:10 25 19.4 71 241 2.8 4.4 1001.1 0.0000 10.6000
19:20 25 19.6 72 239 2.8 5 1001.2 0.0000 10.6000
19:30 25 19.8 73 238 2.5 3.9 1001.2 0.0000 10.6000
19:41 24.9 19.7 73 241 2.5 4.7 1001.1 0.0000 10.6000
19:51 25 19.8 73 229 2.5 3.9 1000.9 0.0000 10.6000
20:00 25 19.6 72 248 2.8 4.7 1000.7 0.0000 10.6000
20:11 25 19.6 72 249 2.5 4.7 1000.4 0.0000 10.6000
20:21 25 19.6 72 257 2.8 5 1000.6 0.0000 10.6000
20:31 24.9 19.9 74 248 3.1 5.6 1000.9 0.0000 10.6000
20:41 24.8 20.1 75 239 3.1 5 1000.9 0.0000 10.6000
20:51 24.6 20.1 76 248 3.1 6.1 1000.9 0.0000 10.6000
21:01 24.5 20 76 261 2.8 4.7 1000.9 0.0000 10.6000
21:11 24.4 19.7 75 294 2.8 4.2 1001 0.0000 10.6000
21:32 24.3 19.8 76 236 2.5 4.4 1001.1 0.0000 10.6000
21:41 24.3 19.6 75 234 2.8 6.1 1001.2 0.0000 10.6000
21:51 24.2 19.5 75 237 2.8 4.7 1001 0.0000 10.6000
22:02 24 19.3 75 244 2.8 4.4 1001.2 0.0000 10.6000
22:12 23.8 19.3 76 227 2.8 3.6 1001.2 0.0000 10.6000
22:22 23.5 19.4 78 236 2.8 3.9 1001.3 0.0000 10.6000
22:32 23.3 19.2 78 237 2.8 3.6 1001.3 0.0000 10.6000
22:42 23.1 18.6 76 239 2.8 3.3 1001.4 0.0000 10.6000
22:52 23 18.5 76 211 2.2 3.1 1001.3 0.0000 10.6000
23:02 22.9 18.2 75 223 1.9 2.8 1001.3 0.0000 10.6000
23:13 22.8 18.4 76 222 1.4 2.2 1001.4 0.0000 10.6000
23:22 22.7 18.3 76 215 1.4 1.9 1001.4 0.0000 10.6000
23:32 22.6 18.4 77 225 0.8 1.4 1001.3 0.0000 10.6000
23:43 22.5 18.1 76 216 0.8 1.4 1001.2 0.0000 10.6000
23:53 22.4 18 76 270 0.8 1.4 1001.2 0.0000

DAY STATISTIC

2021-06-21
TEMPERATURE
AVERAGE
27.6
HIGH
38.6
14:02
LOW
21.4
05:18
PRESSURE
AVERAGE
1001.2
HIGH
1003.0
00:15
LOW
999.0
14:13
DEWPOINT
AVERAGE
18.6
HIGH
21.6
11:00
LOW
15.4
03:57
HUMIDITY
AVERAGE
60
HIGH
78
22:22
LOW
36
14:02
WIND SPEED
AVERAGE
2.9
HIGH
4.2
12:32
WIND GUST
AVERAGE
4.5
HIGH
10.0
15:48
WIND DIRECTION
PREVAILING
SW
56.1%
N
5.0
NE
0.7
E
0.0
SE
0.7
S
8.6
SW
56.1
W
24.5
NW
4.3
PRECIPITATION
RAIN HOUR
10.6
RAIN DAY
10.6
TEMPERATURE (°C)
LOW
21.4
HIGH
38.6
AVERAGE
27.6
PRESSURE (hpa)
LOW
999.0
HIGH
1003.0
AVERAGE
1001.2
DEVICE